PWSweather.com
Personal Weather Stations
Station Observations
WISCHPK61
Green Bay Schmitt Park, Green Bay, WI 54311

Green Bay Schmitt ParkGreen Bay, WI 54311

Lat: 44.514277, Lon: -87.935067

Elevation: 735

Station Type: Acu Rite Pro Weather Center model 02032C

http://greenbayweathercam.com

High Low Average
Temperature 87.8°F31.0°C 53.1°F11.7°C 67.6°F19.8°C
Dew Point 83.9°F28.8°C 42.7°F5.9°C 59.6°F15.3°C
Winds 1.2 mph 1.9 kmh Calm Calm Calm SSECalm SSE
Wind Gusts 1.2 mph1.9 kmh -- --
Humidity 99% 30% 80%
Pressure 29.45 in997.3 mb 29.30 in992.2 mb -
Precipitation 0.00 in0.0 mm - -
Hour Temp Dew Point Humidity Winds Wind Gusts Pressure Precip Precip Rate Daily Precip Total
12:00 AM 60.3°F15.7°C 55.1°F12.8°C 83% Calm Calm -- 29.39 in995.3 mb - 0.00 in0.0 mm 0.00 in0.0 mm
01:00 AM 60.3°F15.7°C 55.1°F12.8°C 83% Calm Calm -- 29.39 in995.3 mb - 0.00 in0.0 mm 0.00 in0.0 mm
02:00 AM 60.3°F15.7°C 54.8°F12.7°C 82% Calm Calm -- 29.39 in995.3 mb - 0.00 in0.0 mm 0.00 in0.0 mm
03:00 AM 60.3°F15.7°C 56.1°F13.4°C 86% Calm Calm -- 29.39 in995.3 mb - 0.00 in0.0 mm 0.00 in0.0 mm
04:00 AM 60.3°F15.7°C 58.0°F14.4°C 92% Calm Calm -- 29.39 in995.3 mb - 0.00 in0.0 mm 0.00 in0.0 mm
05:00 AM 60.3°F15.7°C 58.0°F14.4°C 92% Calm Calm -- 29.39 in995.3 mb - 0.00 in0.0 mm 0.00 in0.0 mm
06:00 AM 53.1°F11.7°C 52.8°F11.6°C 99% Calm Calm -- 29.44 in997.0 mb - 0.00 in0.0 mm 0.00 in0.0 mm
07:00 AM 57.5°F14.2°C 57.2°F14.0°C 99% Calm Calm -- 29.45 in997.3 mb - 0.00 in0.0 mm 0.00 in0.0 mm
08:00 AM 64.0°F17.8°C 63.7°F17.6°C 99% Calm Calm -- 29.45 in997.3 mb - 0.00 in0.0 mm 0.00 in0.0 mm
09:00 AM 69.9°F21.1°C 59.7°F15.4°C 70% Calm Calm -- 29.43 in996.6 mb - 0.00 in0.0 mm 0.00 in0.0 mm
10:00 AM 74.1°F23.4°C 73.8°F23.2°C 99% Calm Calm 1.2 mph1.9 kmh 29.42 in996.3 mb - 0.00 in0.0 mm 0.00 in0.0 mm
11:00 AM 77.4°F25.2°C 55.0°F12.8°C 46% Calm Calm -- 29.41 in995.9 mb - 0.00 in0.0 mm 0.00 in0.0 mm
12:00 PM 83.3°F28.5°C 83.0°F28.3°C 99% Calm Calm -- 29.38 in994.9 mb - 0.00 in0.0 mm 0.00 in0.0 mm
01:00 PM 87.8°F31.0°C 56.7°F13.7°C 35% Calm Calm -- 29.36 in994.2 mb - 0.00 in0.0 mm 0.00 in0.0 mm
02:00 PM 84.2°F29.0°C 83.9°F28.8°C 99% Calm Calm -- 29.34 in993.6 mb - 0.00 in0.0 mm 0.00 in0.0 mm
03:00 PM 76.4°F24.7°C 42.7°F5.9°C 30% Calm Calm -- 29.33 in993.2 mb - 0.00 in0.0 mm 0.00 in0.0 mm
04:00 PM 72.7°F22.6°C 72.4°F22.4°C 99% 1.2 mph ESE1.9 kmh ESE 1.2 mph1.9 kmh 29.34 in993.6 mb - 0.00 in0.0 mm 0.00 in0.0 mm
05:00 PM 68.0°F20.0°C 67.7°F19.8°C 99% Calm Calm -- 29.36 in994.2 mb - 0.00 in0.0 mm 0.00 in0.0 mm
06:00 PM 66.2°F19.0°C 45.4°F7.4°C 47% Calm Calm -- 29.32 in992.9 mb - 0.00 in0.0 mm 0.00 in0.0 mm
07:00 PM 66.4°F19.1°C 49.2°F9.6°C 54% Calm Calm -- 29.31 in992.6 mb - 0.00 in0.0 mm 0.00 in0.0 mm
08:00 PM 65.1°F18.4°C 51.3°F10.7°C 61% Calm Calm -- 29.30 in992.2 mb - 0.00 in0.0 mm 0.00 in0.0 mm
09:00 PM 64.6°F18.1°C 51.3°F10.7°C 62% Calm Calm -- 29.30 in992.2 mb - 0.00 in0.0 mm 0.00 in0.0 mm
10:00 PM 64.6°F18.1°C 64.3°F17.9°C 99% Calm Calm -- 29.31 in992.6 mb - 0.00 in0.0 mm 0.00 in0.0 mm
11:00 PM 64.6°F18.1°C 64.3°F17.9°C 99% Calm Calm -- 29.31 in992.6 mb - 0.00 in0.0 mm 0.00 in0.0 mm